Time;durP1;ratioP1;P1;durP2;ratioP2;P2;SDS_P1;SDS_P2;PMS_P1;PMS_P2;Temp;Humidity;BMP_temperature;BMP_pressure;BME280_temperature;BME280_humidity;BME280_pressure;Samples;Min_cycle;Max_cycle;Signal;HPM_P1;HPM_P2
2021/03/04 00:00:38;;;;;;;;;;;22.20;51.70;;;;;;5092825;28;19908;-54
2021/03/04 00:03:05;;;;;;;;;;;22.20;51.70;;;;;;5092171;28;19966;-54
2021/03/04 00:05:31;;;;;;;;;;;22.20;51.70;;;;;;5092288;28;19923;-54
2021/03/04 00:07:57;;;;;;;;;;;22.20;51.70;;;;;;5092418;28;19908;-54
2021/03/04 00:10:23;;;;;;;;;;;22.20;51.70;;;;;;5074167;28;20014;-54
2021/03/04 00:12:49;;;;;;;;;;;22.20;51.70;;;;;;5092403;28;20354;-54
2021/03/04 00:15:19;;;;;;;;;;;22.20;51.70;;;;;;5092144;28;19972;-54
2021/03/04 00:17:45;;;;;;;;;;;22.20;51.70;;;;;;5092227;28;19912;-54
2021/03/04 00:20:13;;;;;;;;;;;22.20;51.80;;;;;;5092396;28;19912;-55
2021/03/04 00:22:38;;;;;;;;;;;22.20;51.70;;;;;;5092013;28;20257;-55
2021/03/04 00:25:05;;;;;;;;;;;22.20;51.70;;;;;;5092089;28;19933;-55
2021/03/04 00:27:31;;;;;;;;;;;22.20;51.70;;;;;;5092117;28;19994;-55
2021/03/04 00:29:57;;;;;;;;;;;22.10;51.70;;;;;;5091861;28;20053;-55
2021/03/04 00:32:23;;;;;;;;;;;22.10;52.30;;;;;;5091618;28;19916;-55
2021/03/04 00:34:49;;;;;;;;;;;22.20;51.80;;;;;;5091774;28;20361;-55
2021/03/04 00:37:15;;;;;;;;;;;22.10;51.70;;;;;;5091759;28;19915;-54
2021/03/04 00:39:41;;;;;;;;;;;22.10;52.40;;;;;;5091949;28;20366;-55
2021/03/04 00:42:07;;;;;;;;;;;22.10;51.70;;;;;;5056820;28;19904;-55
2021/03/04 00:44:33;;;;;;;;;;;22.10;51.70;;;;;;5091755;28;19908;-54
2021/03/04 00:46:59;;;;;;;;;;;22.10;51.80;;;;;;5091645;28;20255;-55
2021/03/04 00:49:25;;;;;;;;;;;22.10;51.80;;;;;;5091784;28;20281;-55
2021/03/04 00:51:50;;;;;;;;;;;22.10;51.70;;;;;;5091695;28;19908;-55
2021/03/04 00:54:16;;;;;;;;;;;22.10;51.80;;;;;;5091742;28;19904;-55
2021/03/04 00:56:42;;;;;;;;;;;22.10;51.80;;;;;;5092022;28;19908;-55
2021/03/04 00:59:08;;;;;;;;;;;22.10;51.80;;;;;;5091913;28;19929;-55
2021/03/04 01:01:33;;;;;;;;;;;22.10;51.80;;;;;;5073976;28;19912;-56
2021/03/04 01:03:59;;;;;;;;;;;22.10;51.80;;;;;;5091770;28;19920;-53
2021/03/04 01:06:25;;;;;;;;;;;22.10;51.80;;;;;;5092909;28;20377;-53
2021/03/04 01:08:51;;;;;;;;;;;22.10;51.80;;;;;;5095567;28;19911;-54
2021/03/04 01:11:17;;;;;;;;;;;22.10;51.80;;;;;;5095758;28;19908;-53
2021/03/04 01:13:43;;;;;;;;;;;22.10;51.90;;;;;;5095498;28;19911;-54
2021/03/04 01:16:09;;;;;;;;;;;22.10;51.90;;;;;;5095474;28;19912;-54
2021/03/04 01:18:35;;;;;;;;;;;22.10;51.90;;;;;;5095600;28;19914;-54
2021/03/04 01:21:02;;;;;;;;;;;22.10;51.90;;;;;;5095561;28;20361;-54
2021/03/04 01:23:28;;;;;;;;;;;22.10;51.90;;;;;;5095442;28;19944;-54
2021/03/04 01:25:53;;;;;;;;;;;22.10;51.80;;;;;;5095408;28;20740;-54
2021/03/04 01:28:19;;;;;;;;;;;22.10;51.80;;;;;;5095573;28;19911;-54
2021/03/04 01:30:45;;;;;;;;;;;22.00;51.80;;;;;;5095215;28;19911;-54
2021/03/04 01:33:11;;;;;;;;;;;22.00;51.80;;;;;;5095193;28;19919;-54
2021/03/04 01:35:37;;;;;;;;;;;22.00;51.80;;;;;;5095072;28;20342;-54
2021/03/04 01:38:03;;;;;;;;;;;22.00;51.80;;;;;;5095135;28;20021;-54
2021/03/04 01:40:28;;;;;;;;;;;22.00;51.80;;;;;;5095108;28;19908;-54
2021/03/04 01:42:54;;;;;;;;;;;22.00;51.80;;;;;;5094979;28;19908;-54
2021/03/04 01:45:20;;;;;;;;;;;22.00;51.80;;;;;;5094989;28;19915;-54
2021/03/04 01:47:50;;;;;;;;;;;22.00;51.80;;;;;;5094821;28;19904;-53
2021/03/04 01:50:17;;;;;;;;;;;22.00;51.80;;;;;;5094738;28;19912;-54
2021/03/04 01:52:43;;;;;;;;;;;22.00;51.90;;;;;;5094531;28;19908;-53
2021/03/04 01:55:10;;;;;;;;;;;22.00;51.80;;;;;;5094322;28;20402;-54
2021/03/04 01:57:36;;;;;;;;;;;21.90;51.80;;;;;;5094426;28;20280;-54
2021/03/04 02:00:04;;;;;;;;;;;21.90;51.80;;;;;;5094738;28;19904;-54
2021/03/04 02:02:35;;;;;;;;;;;21.90;51.90;;;;;;5094118;28;19922;-55
2021/03/04 02:05:02;;;;;;;;;;;21.90;51.90;;;;;;5093693;28;20364;-55
2021/03/04 02:07:43;;;;;;;;;;;21.90;51.90;;;;;;5094061;28;19915;-54
2021/03/04 02:10:14;;;;;;;;;;;21.90;51.90;;;;;;5094424;28;20350;-55
2021/03/04 02:12:52;;;;;;;;;;;21.90;51.90;;;;;;5094520;28;19912;-55
2021/03/04 02:15:20;;;;;;;;;;;21.90;51.90;;;;;;5094447;28;19912;-55
2021/03/04 02:17:48;;;;;;;;;;;21.90;51.90;;;;;;5093570;28;19917;-54
2021/03/04 02:20:26;;;;;;;;;;;21.90;51.90;;;;;;5093675;28;19953;-55
2021/03/04 02:22:58;;;;;;;;;;;21.90;52.00;;;;;;5075707;28;19912;-55
2021/03/04 02:25:27;;;;;;;;;;;21.90;51.90;;;;;;5094613;28;19916;-55
2021/03/04 02:27:54;;;;;;;;;;;21.90;52.00;;;;;;5094341;28;20004;-55
2021/03/04 02:30:24;;;;;;;;;;;21.90;52.00;;;;;;5094059;28;19912;-55
2021/03/04 02:32:52;;;;;;;;;;;21.90;52.00;;;;;;5094068;28;20418;-55
2021/03/04 02:35:30;;;;;;;;;;;21.90;52.00;;;;;;5093899;28;19907;-55
2021/03/04 02:37:58;;;;;;;;;;;21.90;52.00;;;;;;5093913;28;20259;-55
2021/03/04 02:40:25;;;;;;;;;;;21.90;52.00;;;;;;5075537;28;19908;-55
2021/03/04 02:42:52;;;;;;;;;;;21.90;52.00;;;;;;5093740;28;19931;-55
2021/03/04 02:45:19;;;;;;;;;;;21.90;52.00;;;;;;5093748;28;19908;-55
2021/03/04 02:47:45;;;;;;;;;;;21.90;52.00;;;;;;5075455;28;19919;-55
2021/03/04 02:50:12;;;;;;;;;;;21.90;52.00;;;;;;5093674;28;19915;-55
2021/03/04 02:52:38;;;;;;;;;;;21.90;52.00;;;;;;5075566;28;20388;-55
2021/03/04 02:55:05;;;;;;;;;;;21.90;52.00;;;;;;5093344;28;19912;-55
2021/03/04 02:57:31;;;;;;;;;;;21.90;52.00;;;;;;5093587;28;19969;-55
2021/03/04 02:59:58;;;;;;;;;;;21.90;52.00;;;;;;5093591;28;19970;-54
2021/03/04 03:02:25;;;;;;;;;;;21.90;52.20;;;;;;5093489;28;19969;-54
2021/03/04 03:04:52;;;;;;;;;;;21.90;52.00;;;;;;5093291;28;19942;-54
2021/03/04 03:07:17;;;;;;;;;;;21.80;52.00;;;;;;5093476;28;19994;-53
2021/03/04 03:09:44;;;;;;;;;;;21.80;51.90;;;;;;5093265;28;19990;-53
2021/03/04 03:12:15;;;;;;;;;;;21.80;52.00;;;;;;5093221;28;20435;-54
2021/03/04 03:14:41;;;;;;;;;;;21.90;52.00;;;;;;5074824;28;20014;-55
2021/03/04 03:17:07;;;;;;;;;;;21.80;51.90;;;;;;5074824;28;19908;-54
2021/03/04 03:19:33;;;;;;;;;;;21.80;51.90;;;;;;5093102;28;19911;-53
2021/03/04 03:22:00;;;;;;;;;;;21.80;52.00;;;;;;5093100;28;19908;-54
2021/03/04 03:24:25;;;;;;;;;;;21.80;51.90;;;;;;5092926;28;19915;-54
2021/03/04 03:26:51;;;;;;;;;;;21.80;52.00;;;;;;5093131;28;20257;-54
2021/03/04 03:29:17;;;;;;;;;;;21.80;52.00;;;;;;5092452;28;19990;-54
2021/03/04 03:31:45;;;;;;;;;;;21.80;52.00;;;;;;5092896;28;19904;-54
2021/03/04 03:34:11;;;;;;;;;;;21.80;52.00;;;;;;5092880;28;19915;-54
2021/03/04 03:36:37;;;;;;;;;;;21.80;52.00;;;;;;5092939;28;19912;-54
2021/03/04 03:39:04;;;;;;;;;;;21.80;52.00;;;;;;5092887;28;19903;-54
2021/03/04 03:41:31;;;;;;;;;;;21.80;52.00;;;;;;5092720;28;19912;-55
2021/03/04 03:43:57;;;;;;;;;;;21.80;52.00;;;;;;5092703;28;19961;-54
2021/03/04 03:46:23;;;;;;;;;;;21.80;52.10;;;;;;5092796;28;19908;-54
2021/03/04 03:48:50;;;;;;;;;;;21.80;52.00;;;;;;5091974;28;19908;-54
2021/03/04 03:51:16;;;;;;;;;;;21.80;52.00;;;;;;5091982;28;19908;-54
2021/03/04 03:53:42;;;;;;;;;;;21.80;52.10;;;;;;5091811;28;19904;-54
2021/03/04 03:56:09;;;;;;;;;;;21.80;52.00;;;;;;5091882;28;19918;-54
2021/03/04 03:58:36;;;;;;;;;;;21.80;52.00;;;;;;5091597;28;19998;-55
2021/03/04 04:01:02;;;;;;;;;;;21.80;52.00;;;;;;5091998;28;19912;-55
2021/03/04 04:03:29;;;;;;;;;;;21.80;52.00;;;;;;5091718;28;19908;-54
2021/03/04 04:05:54;;;;;;;;;;;21.80;52.00;;;;;;5073665;28;20353;-54
2021/03/04 04:08:23;;;;;;;;;;;21.80;52.00;;;;;;5091767;28;19934;-54
2021/03/04 04:10:49;;;;;;;;;;;21.80;52.00;;;;;;5091703;28;19973;-54
2021/03/04 04:13:15;;;;;;;;;;;21.80;52.00;;;;;;5091510;28;19908;-54
2021/03/04 04:15:41;;;;;;;;;;;21.70;51.90;;;;;;5073733;28;19995;-54
2021/03/04 04:18:07;;;;;;;;;;;21.80;52.00;;;;;;5092312;28;19912;-54
2021/03/04 04:20:33;;;;;;;;;;;21.80;52.00;;;;;;5074038;28;20730;-54
2021/03/04 04:22:59;;;;;;;;;;;21.70;51.90;;;;;;5092077;28;19970;-54
2021/03/04 04:25:26;;;;;;;;;;;21.70;51.90;;;;;;5074070;28;19931;-54
2021/03/04 04:27:52;;;;;;;;;;;21.70;51.90;;;;;;5091115;28;20003;-54
2021/03/04 04:30:19;;;;;;;;;;;21.70;51.90;;;;;;5091445;28;20381;-55
2021/03/04 04:32:45;;;;;;;;;;;21.70;51.90;;;;;;5091837;28;19904;-55
2021/03/04 04:35:12;;;;;;;;;;;21.70;51.90;;;;;;5092074;28;20054;-55
2021/03/04 04:37:38;;;;;;;;;;;21.70;51.90;;;;;;5092030;28;20427;-55
2021/03/04 04:40:04;;;;;;;;;;;20.90;51.50;;;;;;5092132;28;19938;-55
2021/03/04 04:42:30;;;;;;;;;;;21.70;51.90;;;;;;5094868;28;20300;-55
2021/03/04 04:44:56;;;;;;;;;;;21.70;51.90;;;;;;5094148;28;19908;-55
2021/03/04 04:47:21;;;;;;;;;;;21.60;51.80;;;;;;5095387;28;19908;-55
2021/03/04 04:49:47;;;;;;;;;;;21.70;51.90;;;;;;5095508;28;20419;-55
2021/03/04 04:52:13;;;;;;;;;;;21.70;51.90;;;;;;5095785;28;20376;-55
2021/03/04 04:54:39;;;;;;;;;;;21.60;51.80;;;;;;5095810;28;19908;-55
2021/03/04 04:57:05;;;;;;;;;;;21.70;51.90;;;;;;5095852;28;19904;-55
2021/03/04 04:59:31;;;;;;;;;;;21.70;51.90;;;;;;5095961;28;20429;-55
2021/03/04 05:01:57;;;;;;;;;;;21.70;51.90;;;;;;5095933;28;20007;-55
2021/03/04 05:04:22;;;;;;;;;;;21.70;51.90;;;;;;5095754;28;19923;-55
2021/03/04 05:06:48;;;;;;;;;;;21.60;52.40;;;;;;5095603;28;19908;-55
2021/03/04 05:09:14;;;;;;;;;;;21.60;51.80;;;;;;5095397;28;20379;-55
2021/03/04 05:11:40;;;;;;;;;;;21.60;51.80;;;;;;5077642;28;19916;-55
2021/03/04 05:14:06;;;;;;;;;;;21.60;51.80;;;;;;5095877;28;19911;-54
2021/03/04 05:16:31;;;;;;;;;;;21.60;51.90;;;;;;5095464;28;19912;-54
2021/03/04 05:18:57;;;;;;;;;;;21.60;51.90;;;;;;5095342;28;20245;-54
2021/03/04 05:21:23;;;;;;;;;;;21.60;51.90;;;;;;5095636;28;19908;-54
2021/03/04 05:23:49;;;;;;;;;;;21.60;51.90;;;;;;5095495;28;19908;-54
2021/03/04 05:26:15;;;;;;;;;;;21.60;51.90;;;;;;5095476;28;19931;-54
2021/03/04 05:28:40;;;;;;;;;;;21.60;52.00;;;;;;5095236;28;19969;-54
2021/03/04 05:31:06;;;;;;;;;;;21.60;51.90;;;;;;5095262;28;19915;-56
2021/03/04 05:33:32;;;;;;;;;;;21.60;51.90;;;;;;5095335;28;19904;-56
2021/03/04 05:35:58;;;;;;;;;;;21.60;51.90;;;;;;5095082;28;19955;-56
2021/03/04 05:38:24;;;;;;;;;;;21.60;51.90;;;;;;5093778;28;19915;-55
2021/03/04 05:40:49;;;;;;;;;;;21.60;52.00;;;;;;5095024;28;19939;-57
2021/03/04 05:43:16;;;;;;;;;;;21.50;51.90;;;;;;5095010;28;19908;-56
2021/03/04 05:45:42;;;;;;;;;;;21.60;52.00;;;;;;5076985;28;19908;-56
2021/03/04 05:48:09;;;;;;;;;;;21.60;52.00;;;;;;5094968;28;19904;-56
2021/03/04 05:50:37;;;;;;;;;;;21.60;52.00;;;;;;5093112;28;20298;-56
2021/03/04 05:53:05;;;;;;;;;;;21.60;52.00;;;;;;5075528;28;19911;-56
2021/03/04 05:55:31;;;;;;;;;;;21.50;52.00;;;;;;5088652;28;19956;-56
2021/03/04 05:57:57;;;;;;;;;;;21.60;52.00;;;;;;5077130;28;20274;-56
2021/03/04 06:00:23;;;;;;;;;;;21.50;52.00;;;;;;5086168;28;19909;-56
2021/03/04 06:02:50;;;;;;;;;;;21.60;52.00;;;;;;5062999;28;20319;-56
2021/03/04 06:05:16;;;;;;;;;;;21.50;52.00;;;;;;5093911;28;20008;-56
2021/03/04 06:07:45;;;;;;;;;;;21.50;52.00;;;;;;5079155;28;19964;-56
2021/03/04 06:10:11;;;;;;;;;;;21.50;52.00;;;;;;5074435;28;19913;-56
2021/03/04 06:12:37;;;;;;;;;;;21.60;52.10;;;;;;5086968;28;19992;-56
2021/03/04 06:15:07;;;;;;;;;;;21.60;52.10;;;;;;5080449;28;19943;-56
2021/03/04 06:17:33;;;;;;;;;;;21.50;52.00;;;;;;5086100;28;20300;-56
2021/03/04 06:20:00;;;;;;;;;;;21.50;52.00;;;;;;5094248;28;19904;-54
2021/03/04 06:22:27;;;;;;;;;;;21.50;52.00;;;;;;5094188;28;19915;-56
2021/03/04 06:24:53;;;;;;;;;;;21.50;52.00;;;;;;5076155;28;19915;-56
2021/03/04 06:27:29;;;;;;;;;;;21.50;52.00;;;;;;5094392;28;20401;-56
2021/03/04 06:29:59;;;;;;;;;;;21.50;52.00;;;;;;5094097;28;20308;-55
2021/03/04 06:32:25;;;;;;;;;;;21.50;52.00;;;;;;5093962;28;20388;-55
2021/03/04 06:35:03;;;;;;;;;;;21.50;52.00;;;;;;5085172;28;19908;-55
2021/03/04 06:37:30;;;;;;;;;;;21.50;52.00;;;;;;5073772;28;20062;-56
2021/03/04 06:39:56;;;;;;;;;;;21.50;52.00;;;;;;5077695;28;19912;-56
2021/03/04 06:42:23;;;;;;;;;;;21.50;52.10;;;;;;5085818;28;19991;-56
2021/03/04 06:44:50;;;;;;;;;;;21.50;52.10;;;;;;5079251;28;19908;-56
2021/03/04 06:47:20;;;;;;;;;;;21.40;52.00;;;;;;5084425;28;19931;-53
2021/03/04 06:49:46;;;;;;;;;;;21.50;52.10;;;;;;5073285;28;20006;-56
2021/03/04 06:52:22;;;;;;;;;;;21.50;52.10;;;;;;5088421;28;19986;-55
2021/03/04 06:54:48;;;;;;;;;;;21.50;52.10;;;;;;5073115;28;20015;-55
2021/03/04 06:57:14;;;;;;;;;;;21.50;52.10;;;;;;5072970;28;19904;-54
2021/03/04 06:59:41;;;;;;;;;;;21.50;52.10;;;;;;5073057;28;19913;-56
2021/03/04 07:02:07;;;;;;;;;;;21.50;52.10;;;;;;5056540;28;19908;-56
2021/03/04 07:04:33;;;;;;;;;;;21.40;52.10;;;;;;5085974;28;20392;-56
2021/03/04 07:06:59;;;;;;;;;;;21.50;52.10;;;;;;5084538;28;19918;-56
2021/03/04 07:09:25;;;;;;;;;;;21.50;52.10;;;;;;5091274;28;19908;-55
2021/03/04 07:11:52;;;;;;;;;;;21.40;52.00;;;;;;5087242;28;19915;-57
2021/03/04 07:14:18;;;;;;;;;;;21.50;52.10;;;;;;5072711;28;19915;-57
2021/03/04 07:16:45;;;;;;;;;;;21.40;52.00;;;;;;5091240;28;20357;-56
2021/03/04 07:19:12;;;;;;;;;;;21.50;52.00;;;;;;5092928;28;20303;-56
2021/03/04 07:21:41;;;;;;;;;;;21.50;52.00;;;;;;5092882;28;19955;-57
2021/03/04 07:24:08;;;;;;;;;;;21.50;52.00;;;;;;5092893;28;19957;-56
2021/03/04 07:26:36;;;;;;;;;;;21.50;52.00;;;;;;5092766;28;19915;-53
2021/03/04 07:29:06;;;;;;;;;;;21.50;52.00;;;;;;5074549;28;19922;-54
2021/03/04 07:31:32;;;;;;;;;;;21.50;52.00;;;;;;5092685;28;20345;-55
2021/03/04 07:33:59;;;;;;;;;;;21.50;51.90;;;;;;5092772;28;19919;-58
2021/03/04 07:36:25;;;;;;;;;;;21.50;51.90;;;;;;5074433;28;19912;-56
2021/03/04 07:38:55;;;;;;;;;;;21.50;51.90;;;;;;5092544;28;19908;-56
2021/03/04 07:41:20;;;;;;;;;;;21.50;51.90;;;;;;5092352;28;19970;-56
2021/03/04 07:43:50;;;;;;;;;;;21.50;51.90;;;;;;5092451;28;19965;-57
2021/03/04 07:46:29;;;;;;;;;;;21.50;51.90;;;;;;5092371;28;19915;-54
2021/03/04 07:48:55;;;;;;;;;;;21.50;51.90;;;;;;5092387;28;19908;-54
2021/03/04 07:51:21;;;;;;;;;;;21.60;51.90;;;;;;5091712;28;19933;-54
2021/03/04 07:53:47;;;;;;;;;;;21.50;51.90;;;;;;5092134;28;20281;-57
2021/03/04 07:56:28;;;;;;;;;;;21.60;51.90;;;;;;5092155;28;19912;-56
2021/03/04 07:59:07;;;;;;;;;;;21.60;51.90;;;;;;5092290;28;19995;-56
2021/03/04 08:01:33;;;;;;;;;;;21.60;51.90;;;;;;5092096;28;19913;-57
2021/03/04 08:03:59;;;;;;;;;;;21.60;51.80;;;;;;5092110;28;19911;-57
2021/03/04 08:06:24;;;;;;;;;;;21.60;51.60;;;;;;5092214;28;19908;-57
2021/03/04 08:08:50;;;;;;;;;;;21.60;51.60;;;;;;5091967;28;20361;-57
2021/03/04 08:11:26;;;;;;;;;;;21.60;51.50;;;;;;5092132;28;19915;-57
2021/03/04 08:13:52;;;;;;;;;;;21.60;51.50;;;;;;5092139;28;19908;-53
2021/03/04 08:16:18;;;;;;;;;;;21.60;51.40;;;;;;5091578;28;20384;-54
2021/03/04 08:18:52;;;;;;;;;;;21.60;51.30;;;;;;5092056;28;20005;-54
2021/03/04 08:21:17;;;;;;;;;;;21.60;51.20;;;;;;5092074;28;19999;-54
2021/03/04 08:23:43;;;;;;;;;;;21.60;51.10;;;;;;5092212;28;20042;-55
2021/03/04 08:26:25;;;;;;;;;;;21.60;51.10;;;;;;5091761;28;19915;-56
2021/03/04 08:29:10;;;;;;;;;;;21.70;51.00;;;;;;5091636;28;19908;-54
2021/03/04 08:31:41;;;;;;;;;;;21.60;50.80;;;;;;5091352;28;19935;-57
2021/03/04 08:34:07;;;;;;;;;;;21.60;50.60;;;;;;5073655;28;19930;-54
2021/03/04 08:36:42;;;;;;;;;;;21.60;50.50;;;;;;5091190;28;20006;-55
2021/03/04 08:39:08;;;;;;;;;;;21.60;50.40;;;;;;5091684;28;19908;-58
2021/03/04 08:41:33;;;;;;;;;;;21.60;50.10;;;;;;5091462;28;19970;-59
2021/03/04 08:44:09;;;;;;;;;;;21.60;50.00;;;;;;5091846;28;20297;-60
2021/03/04 08:46:35;;;;;;;;;;;21.50;49.90;;;;;;5091483;28;19908;-59
2021/03/04 08:49:01;;;;;;;;;;;21.50;49.60;;;;;;5091666;28;20200;-57
2021/03/04 08:51:28;;;;;;;;;;;21.50;49.60;;;;;;5092128;28;20475;-57
2021/03/04 08:53:54;;;;;;;;;;;21.40;49.50;;;;;;5091751;28;19908;-61
2021/03/04 08:56:19;;;;;;;;;;;21.30;49.50;;;;;;5091773;28;19916;-60
2021/03/04 08:58:45;;;;;;;;;;;21.30;49.70;;;;;;5073681;28;19908;-61
2021/03/04 09:01:12;;;;;;;;;;;21.20;49.60;;;;;;5091705;28;20310;-63
2021/03/04 09:03:41;;;;;;;;;;;21.10;49.50;;;;;;5091559;28;19995;-63
2021/03/04 09:06:10;;;;;;;;;;;21.10;49.70;;;;;;5091842;28;20288;-58
2021/03/04 09:08:43;;;;;;;;;;;21.00;49.80;;;;;;5091017;28;19919;-58
2021/03/04 09:11:09;;;;;;;;;;;21.00;49.90;;;;;;5091643;28;20342;-57
2021/03/04 09:13:36;;;;;;;;;;;20.90;49.90;;;;;;5073413;28;19912;-62
2021/03/04 09:16:06;;;;;;;;;;;20.90;50.00;;;;;;5091535;28;20288;-61
2021/03/04 09:18:45;;;;;;;;;;;20.90;50.20;;;;;;5091365;28;19908;-62
2021/03/04 09:21:11;;;;;;;;;;;20.80;50.20;;;;;;5091619;28;20422;-58
2021/03/04 09:23:38;;;;;;;;;;;20.90;50.40;;;;;;5091482;28;19908;-57
2021/03/04 09:26:03;;;;;;;;;;;20.80;50.40;;;;;;5088465;28;20338;-55
2021/03/04 09:28:29;;;;;;;;;;;20.80;50.50;;;;;;5094020;28;19904;-58
2021/03/04 09:30:55;;;;;;;;;;;20.90;50.60;;;;;;5076980;28;19915;-61
2021/03/04 09:33:22;;;;;;;;;;;20.80;50.60;;;;;;5095093;28;19994;-61
2021/03/04 09:35:54;;;;;;;;;;;20.90;50.50;;;;;;5094457;28;19912;-62
2021/03/04 09:38:20;;;;;;;;;;;20.90;50.50;;;;;;5093754;28;20710;-61
2021/03/04 09:40:46;;;;;;;;;;;20.90;50.50;;;;;;5094861;28;19908;-57
2021/03/04 09:43:16;;;;;;;;;;;20.90;50.50;;;;;;5094750;28;19946;-57
2021/03/04 09:45:50;;;;;;;;;;;20.90;50.60;;;;;;5094446;28;20728;-57
2021/03/04 09:48:16;;;;;;;;;;;20.90;50.70;;;;;;5082520;28;19995;-59
2021/03/04 09:50:52;;;;;;;;;;;20.90;50.80;;;;;;5074023;28;19943;-60
2021/03/04 09:53:18;;;;;;;;;;;20.90;50.80;;;;;;5073685;28;19908;-61
2021/03/04 09:55:45;;;;;;;;;;;20.90;50.80;;;;;;5078077;28;19977;-71
2021/03/04 09:58:15;;;;;;;;;;;21.00;50.90;;;;;;5075284;28;20350;-70
2021/03/04 10:00:41;;;;;;;;;;;21.10;51.00;;;;;;5055351;28;19916;-73
2021/03/04 10:03:11;;;;;;;;;;;21.10;51.00;;;;;;5075732;28;19916;-74
2021/03/04 10:05:50;;;;;;;;;;;21.20;51.00;;;;;;5056541;28;20317;-74
2021/03/04 10:08:17;;;;;;;;;;;21.30;51.00;;;;;;5074550;28;20422;-71
2021/03/04 10:10:43;;;;;;;;;;;21.30;50.90;;;;;;5095079;28;19914;-71
2021/03/04 10:13:09;;;;;;;;;;;21.40;50.90;;;;;;5078119;28;20308;-71
2021/03/04 10:15:42;;;;;;;;;;;21.50;50.80;;;;;;5095104;28;19916;-71
2021/03/04 10:18:07;;;;;;;;;;;21.60;50.80;;;;;;5085076;28;20307;-69
2021/03/04 10:20:34;;;;;;;;;;;21.70;50.80;;;;;;5065205;28;19908;-70
2021/03/04 10:22:59;;;;;;;;;;;21.80;50.80;;;;;;5086452;28;19905;-68
2021/03/04 10:25:25;;;;;;;;;;;21.80;50.60;;;;;;5077493;28;19908;-70
2021/03/04 10:27:51;;;;;;;;;;;21.90;50.50;;;;;;5079490;28;19987;-76
2021/03/04 10:30:18;;;;;;;;;;;22.00;50.50;;;;;;5097564;28;19962;-71
2021/03/04 10:32:45;;;;;;;;;;;22.10;50.40;;;;;;5092928;28;19961;-71
2021/03/04 10:35:12;;;;;;;;;;;22.10;50.30;;;;;;5076237;28;19931;-72
2021/03/04 10:37:38;;;;;;;;;;;22.20;50.20;;;;;;5076660;28;19908;-76
2021/03/04 10:40:05;;;;;;;;;;;22.20;50.20;;;;;;5075640;28;19908;-79
2021/03/04 10:42:31;;;;;;;;;;;22.30;50.20;;;;;;5092731;28;19904;-82
2021/03/04 10:44:59;;;;;;;;;;;22.30;50.10;;;;;;5093370;28;19915;-77
2021/03/04 10:47:28;;;;;;;;;;;22.40;50.10;;;;;;5059878;28;20472;-79
2021/03/04 10:49:55;;;;;;;;;;;22.40;50.00;;;;;;5075861;28;19908;-74
2021/03/04 10:52:21;;;;;;;;;;;22.50;50.00;;;;;;5094521;28;19916;-77
2021/03/04 10:54:47;;;;;;;;;;;22.50;49.90;;;;;;5075741;28;19904;-69
2021/03/04 10:57:13;;;;;;;;;;;22.60;49.80;;;;;;5094466;28;19907;-73
2021/03/04 10:59:39;;;;;;;;;;;22.60;49.80;;;;;;5095152;28;20265;-75
2021/03/04 11:02:04;;;;;;;;;;;22.60;49.70;;;;;;5075896;28;19912;-73
2021/03/04 11:04:30;;;;;;;;;;;22.70;49.60;;;;;;5075250;28;19916;-71
2021/03/04 11:06:56;;;;;;;;;;;22.70;49.60;;;;;;5058628;28;20391;-68
2021/03/04 11:09:22;;;;;;;;;;;22.80;49.50;;;;;;5093844;28;19912;-74
2021/03/04 11:11:48;;;;;;;;;;;22.80;49.40;;;;;;5072956;28;20008;-69
2021/03/04 11:14:13;;;;;;;;;;;22.80;49.40;;;;;;5092869;28;19958;-72
2021/03/04 11:16:39;;;;;;;;;;;22.90;49.30;;;;;;5093073;28;19919;-72
2021/03/04 11:19:05;;;;;;;;;;;22.90;49.20;;;;;;5092836;28;19916;-68
2021/03/04 11:21:31;;;;;;;;;;;22.90;49.10;;;;;;5091880;28;20381;-69
2021/03/04 11:23:57;;;;;;;;;;;23.00;49.00;;;;;;5092910;28;19907;-70
2021/03/04 11:26:23;;;;;;;;;;;22.90;48.80;;;;;;5092655;28;19908;-69
2021/03/04 11:28:49;;;;;;;;;;;22.90;48.80;;;;;;5092686;28;19915;-69
2021/03/04 11:31:14;;;;;;;;;;;23.00;48.70;;;;;;5074640;28;19908;-71
2021/03/04 11:33:40;;;;;;;;;;;23.00;48.70;;;;;;5093072;28;20010;-67
2021/03/04 11:36:06;;;;;;;;;;;23.10;48.60;;;;;;5092795;28;19908;-67
2021/03/04 11:38:32;;;;;;;;;;;23.10;48.50;;;;;;5074547;28;20019;-68
2021/03/04 11:40:57;;;;;;;;;;;23.20;48.40;;;;;;5074513;28;19904;-66
2021/03/04 11:43:23;;;;;;;;;;;23.20;48.40;;;;;;5074586;28;20246;-67
2021/03/04 11:45:49;;;;;;;;;;;23.20;48.30;;;;;;5074622;28;19904;-66
2021/03/04 11:48:15;;;;;;;;;;;23.30;48.30;;;;;;5091196;28;20272;-68
2021/03/04 11:50:41;;;;;;;;;;;23.30;48.20;;;;;;5074343;28;20385;-68
2021/03/04 11:53:07;;;;;;;;;;;23.30;48.20;;;;;;5074880;28;19916;-67
2021/03/04 11:55:33;;;;;;;;;;;23.30;48.20;;;;;;5092458;28;19912;-68
2021/03/04 11:57:59;;;;;;;;;;;23.40;48.20;;;;;;5057551;28;19927;-67
2021/03/04 12:00:25;;;;;;;;;;;23.40;48.00;;;;;;5073699;28;19943;-66
2021/03/04 12:02:50;;;;;;;;;;;23.40;47.80;;;;;;5092195;28;19922;-72
2021/03/04 12:05:16;;;;;;;;;;;23.50;47.80;;;;;;5091993;28;19911;-71
2021/03/04 12:07:42;;;;;;;;;;;23.50;47.70;;;;;;5090866;28;19919;-71
2021/03/04 12:10:09;;;;;;;;;;;23.60;47.60;;;;;;5092188;28;19908;-71
2021/03/04 12:12:35;;;;;;;;;;;23.60;47.50;;;;;;5092091;28;19904;-67
2021/03/04 12:15:01;;;;;;;;;;;23.70;47.40;;;;;;5091571;28;19930;-71
2021/03/04 12:17:27;;;;;;;;;;;23.70;47.30;;;;;;5091694;28;20362;-68
2021/03/04 12:19:53;;;;;;;;;;;23.70;47.20;;;;;;5091747;28;19904;-67
2021/03/04 12:22:18;;;;;;;;;;;23.70;47.20;;;;;;5091985;28;19907;-71
2021/03/04 12:24:44;;;;;;;;;;;23.70;47.20;;;;;;5091897;28;20337;-70
2021/03/04 12:27:10;;;;;;;;;;;23.60;47.20;;;;;;5073497;28;19908;-69
2021/03/04 12:29:36;;;;;;;;;;;23.70;47.20;;;;;;5091680;28;20011;-71
2021/03/04 12:32:03;;;;;;;;;;;23.70;47.20;;;;;;5073928;28;19908;-67
2021/03/04 12:34:29;;;;;;;;;;;23.70;47.20;;;;;;5091698;28;20039;-67
2021/03/04 12:36:54;;;;;;;;;;;23.70;47.20;;;;;;5073599;28;19996;-67
2021/03/04 12:39:21;;;;;;;;;;;23.60;47.20;;;;;;5073549;28;19911;-70
2021/03/04 12:41:47;;;;;;;;;;;23.70;47.20;;;;;;5092046;28;19915;-71
2021/03/04 12:44:14;;;;;;;;;;;23.70;47.30;;;;;;5092279;28;20648;-70
2021/03/04 12:46:40;;;;;;;;;;;23.80;47.40;;;;;;5090706;28;20385;-66
2021/03/04 12:49:06;;;;;;;;;;;23.80;47.40;;;;;;5074216;28;19908;-66
2021/03/04 12:51:32;;;;;;;;;;;23.90;47.30;;;;;;5092584;28;19943;-72
2021/03/04 12:53:58;;;;;;;;;;;24.00;47.20;;;;;;5092165;28;20755;-72
2021/03/04 12:56:24;;;;;;;;;;;24.00;46.70;;;;;;5074136;28;20475;-74
2021/03/04 12:58:50;;;;;;;;;;;24.10;46.50;;;;;;5073780;28;20304;-72
2021/03/04 13:01:16;;;;;;;;;;;24.10;46.40;;;;;;5074273;28;19908;-71
2021/03/04 13:03:42;;;;;;;;;;;24.10;46.30;;;;;;5095138;28;19919;-70
2021/03/04 13:06:08;;;;;;;;;;;24.00;46.30;;;;;;5077781;28;20365;-71
2021/03/04 13:08:34;;;;;;;;;;;24.00;46.90;;;;;;5078064;28;19908;-71
2021/03/04 13:11:00;;;;;;;;;;;24.00;46.30;;;;;;5077739;28;19916;-73
2021/03/04 13:13:26;;;;;;;;;;;23.90;46.40;;;;;;5077868;28;19908;-75
2021/03/04 13:15:51;;;;;;;;;;;23.90;46.40;;;;;;5077222;28;19912;-76
2021/03/04 13:18:17;;;;;;;;;;;23.80;46.50;;;;;;5077645;28;19915;-74
2021/03/04 13:20:43;;;;;;;;;;;23.80;46.60;;;;;;5061206;28;19915;-71
2021/03/04 13:23:09;;;;;;;;;;;23.80;46.60;;;;;;5077603;28;19908;-75
2021/03/04 13:25:35;;;;;;;;;;;23.80;46.60;;;;;;5095480;28;20357;-73
2021/03/04 13:28:01;;;;;;;;;;;23.80;46.70;;;;;;5077583;28;19911;-72
2021/03/04 13:30:27;;;;;;;;;;;23.80;46.70;;;;;;5095855;28;19908;-74
2021/03/04 13:32:53;;;;;;;;;;;23.70;46.70;;;;;;5060687;28;19908;-74
2021/03/04 13:35:19;;;;;;;;;;;23.70;46.80;;;;;;5060369;28;20412;-75
2021/03/04 13:37:46;;;;;;;;;;;23.70;46.80;;;;;;5060828;28;19911;-74
2021/03/04 13:40:12;;;;;;;;;;;23.70;46.80;;;;;;5077630;28;19916;-78
2021/03/04 13:42:37;;;;;;;;;;;23.70;46.90;;;;;;5077685;28;19911;-76
2021/03/04 13:45:04;;;;;;;;;;;23.60;46.80;;;;;;5096791;28;20262;-76
2021/03/04 13:47:29;;;;;;;;;;;23.70;46.90;;;;;;5071003;28;19908;-75
2021/03/04 13:49:55;;;;;;;;;;;23.60;46.90;;;;;;5093916;28;19957;-74
2021/03/04 13:52:21;;;;;;;;;;;23.60;46.80;;;;;;5095382;28;20031;-75
2021/03/04 13:54:47;;;;;;;;;;;23.60;46.80;;;;;;5079557;28;19904;-77
2021/03/04 13:57:13;;;;;;;;;;;23.50;46.80;;;;;;5081676;28;20349;-75
2021/03/04 13:59:38;;;;;;;;;;;23.50;46.90;;;;;;5078434;28;19904;-76
2021/03/04 14:02:05;;;;;;;;;;;23.50;47.00;;;;;;5095451;28;19912;-73
2021/03/04 14:04:31;;;;;;;;;;;23.50;47.10;;;;;;5077793;28;19922;-76
2021/03/04 14:06:56;;;;;;;;;;;23.50;47.10;;;;;;5095468;28;19907;-76
2021/03/04 14:09:23;;;;;;;;;;;23.40;47.20;;;;;;5078011;28;19967;-78
2021/03/04 14:11:49;;;;;;;;;;;23.40;47.20;;;;;;5061701;28;20311;-76
2021/03/04 14:14:15;;;;;;;;;;;23.40;47.30;;;;;;5095308;28;19907;-77